sensor_id;sensor_type;location;lat;lon;timestamp;P1;durP1;ratioP1;P2;durP2;ratioP2
74168;SDS011;62523;53.336;83.690;2023-09-18T00:03:08;37.85;;;25.42;;
74168;SDS011;62523;53.336;83.690;2023-09-18T00:08:10;46.72;;;26.90;;
74168;SDS011;62523;53.336;83.690;2023-09-18T00:13:11;40.60;;;25.70;;
74168;SDS011;62523;53.336;83.690;2023-09-18T00:18:16;48.95;;;29.40;;
74168;SDS011;62523;53.336;83.690;2023-09-18T00:23:18;68.90;;;32.15;;
74168;SDS011;62523;53.336;83.690;2023-09-18T00:28:20;68.70;;;30.00;;
74168;SDS011;62523;53.336;83.690;2023-09-18T00:33:21;63.70;;;29.20;;
74168;SDS011;62523;53.336;83.690;2023-09-18T00:38:23;62.78;;;30.73;;
74168;SDS011;62523;53.336;83.690;2023-09-18T00:43:24;62.25;;;32.85;;
74168;SDS011;62523;53.336;83.690;2023-09-18T00:48:26;85.43;;;35.97;;
74168;SDS011;62523;53.336;83.690;2023-09-18T00:53:28;86.97;;;53.58;;
74168;SDS011;62523;53.336;83.690;2023-09-18T00:58:30;88.03;;;54.67;;
74168;SDS011;62523;53.336;83.690;2023-09-18T01:03:33;129.27;;;77.18;;
74168;SDS011;62523;53.336;83.690;2023-09-18T01:08:35;62.83;;;36.13;;
74168;SDS011;62523;53.336;83.690;2023-09-18T01:13:38;53.77;;;32.83;;
74168;SDS011;62523;53.336;83.690;2023-09-18T01:18:49;64.80;;;33.97;;
74168;SDS011;62523;53.336;83.690;2023-09-18T01:23:51;67.75;;;35.25;;
74168;SDS011;62523;53.336;83.690;2023-09-18T01:28:53;63.08;;;27.80;;
74168;SDS011;62523;53.336;83.690;2023-09-18T01:33:55;69.20;;;34.10;;
74168;SDS011;62523;53.336;83.690;2023-09-18T01:38:58;57.00;;;31.58;;
74168;SDS011;62523;53.336;83.690;2023-09-18T01:43:59;54.45;;;30.52;;
74168;SDS011;62523;53.336;83.690;2023-09-18T01:49:01;45.90;;;26.08;;
74168;SDS011;62523;53.336;83.690;2023-09-18T01:54:04;110.25;;;49.10;;
74168;SDS011;62523;53.336;83.690;2023-09-18T01:59:05;66.88;;;28.95;;
74168;SDS011;62523;53.336;83.690;2023-09-18T02:04:07;52.97;;;28.20;;
74168;SDS011;62523;53.336;83.690;2023-09-18T02:09:08;72.45;;;28.90;;
74168;SDS011;62523;53.336;83.690;2023-09-18T02:14:10;54.50;;;25.25;;
74168;SDS011;62523;53.336;83.690;2023-09-18T02:19:13;48.15;;;27.17;;
74168;SDS011;62523;53.336;83.690;2023-09-18T02:24:16;68.68;;;26.52;;
74168;SDS011;62523;53.336;83.690;2023-09-18T02:29:17;45.90;;;23.75;;
74168;SDS011;62523;53.336;83.690;2023-09-18T02:34:19;42.90;;;24.50;;
74168;SDS011;62523;53.336;83.690;2023-09-18T02:39:20;59.75;;;26.75;;
74168;SDS011;62523;53.336;83.690;2023-09-18T02:44:22;45.65;;;24.02;;
74168;SDS011;62523;53.336;83.690;2023-09-18T02:49:23;53.67;;;24.80;;
74168;SDS011;62523;53.336;83.690;2023-09-18T02:54:25;50.42;;;23.95;;
74168;SDS011;62523;53.336;83.690;2023-09-18T02:59:27;79.40;;;28.35;;
74168;SDS011;62523;53.336;83.690;2023-09-18T03:04:29;73.53;;;31.33;;
74168;SDS011;62523;53.336;83.690;2023-09-18T03:09:33;70.50;;;29.80;;
74168;SDS011;62523;53.336;83.690;2023-09-18T03:14:36;86.43;;;31.25;;
74168;SDS011;62523;53.336;83.690;2023-09-18T03:19:38;69.78;;;27.98;;
74168;SDS011;62523;53.336;83.690;2023-09-18T03:24:40;58.03;;;26.50;;
74168;SDS011;62523;53.336;83.690;2023-09-18T03:29:41;61.95;;;24.73;;
74168;SDS011;62523;53.336;83.690;2023-09-18T03:34:43;62.33;;;24.70;;
74168;SDS011;62523;53.336;83.690;2023-09-18T03:39:44;64.35;;;27.38;;
74168;SDS011;62523;53.336;83.690;2023-09-18T03:44:46;63.47;;;29.40;;
74168;SDS011;62523;53.336;83.690;2023-09-18T03:49:48;64.77;;;28.93;;
74168;SDS011;62523;53.336;83.690;2023-09-18T03:54:49;76.30;;;28.83;;
74168;SDS011;62523;53.336;83.690;2023-09-18T03:59:52;77.88;;;31.40;;
74168;SDS011;62523;53.336;83.690;2023-09-18T04:04:53;66.63;;;28.25;;
74168;SDS011;62523;53.336;83.690;2023-09-18T04:09:55;116.65;;;49.58;;
74168;SDS011;62523;53.336;83.690;2023-09-18T04:14:57;59.13;;;30.75;;
74168;SDS011;62523;53.336;83.690;2023-09-18T04:19:58;76.45;;;30.05;;
74168;SDS011;62523;53.336;83.690;2023-09-18T04:24:59;50.72;;;28.63;;
74168;SDS011;62523;53.336;83.690;2023-09-18T04:30:01;55.20;;;29.23;;
74168;SDS011;62523;53.336;83.690;2023-09-18T04:35:05;94.27;;;43.17;;
74168;SDS011;62523;53.336;83.690;2023-09-18T04:40:07;49.42;;;31.13;;
74168;SDS011;62523;53.336;83.690;2023-09-18T04:45:14;39.17;;;25.23;;
74168;SDS011;62523;53.336;83.690;2023-09-18T04:50:17;41.25;;;27.00;;
74168;SDS011;62523;53.336;83.690;2023-09-18T04:55:18;55.40;;;32.75;;
74168;SDS011;62523;53.336;83.690;2023-09-18T05:00:20;49.38;;;19.40;;
74168;SDS011;62523;53.336;83.690;2023-09-18T05:05:24;44.47;;;21.10;;
74168;SDS011;62523;53.336;83.690;2023-09-18T05:10:26;54.17;;;21.70;;
74168;SDS011;62523;53.336;83.690;2023-09-18T05:15:27;38.90;;;19.52;;
74168;SDS011;62523;53.336;83.690;2023-09-18T05:20:33;21.90;;;13.32;;
74168;SDS011;62523;53.336;83.690;2023-09-18T05:25:44;17.26;;;10.15;;
74168;SDS011;62523;53.336;83.690;2023-09-18T05:30:46;21.10;;;11.23;;
74168;SDS011;62523;53.336;83.690;2023-09-18T05:35:47;17.03;;;10.15;;
74168;SDS011;62523;53.336;83.690;2023-09-18T05:40:49;13.36;;;9.77;;
74168;SDS011;62523;53.336;83.690;2023-09-18T05:45:51;26.37;;;11.27;;
74168;SDS011;62523;53.336;83.690;2023-09-18T05:50:52;20.17;;;9.90;;
74168;SDS011;62523;53.336;83.690;2023-09-18T05:55:55;32.00;;;9.52;;
74168;SDS011;62523;53.336;83.690;2023-09-18T06:00:58;25.85;;;10.00;;
74168;SDS011;62523;53.336;83.690;2023-09-18T06:06:01;20.67;;;8.70;;
74168;SDS011;62523;53.336;83.690;2023-09-18T06:11:03;26.52;;;12.18;;
74168;SDS011;62523;53.336;83.690;2023-09-18T06:16:05;16.40;;;10.65;;
74168;SDS011;62523;53.336;83.690;2023-09-18T06:21:08;23.92;;;11.02;;
74168;SDS011;62523;53.336;83.690;2023-09-18T06:26:10;16.30;;;10.02;;
74168;SDS011;62523;53.336;83.690;2023-09-18T06:31:11;19.23;;;10.10;;
74168;SDS011;62523;53.336;83.690;2023-09-18T06:36:13;20.47;;;9.93;;
74168;SDS011;62523;53.336;83.690;2023-09-18T06:41:14;16.17;;;8.85;;
74168;SDS011;62523;53.336;83.690;2023-09-18T06:46:16;15.32;;;8.95;;
74168;SDS011;62523;53.336;83.690;2023-09-18T06:51:17;13.75;;;8.02;;
74168;SDS011;62523;53.336;83.690;2023-09-18T06:56:18;14.80;;;10.65;;
74168;SDS011;62523;53.336;83.690;2023-09-18T07:01:22;10.82;;;6.72;;
74168;SDS011;62523;53.336;83.690;2023-09-18T07:06:25;14.00;;;7.45;;
74168;SDS011;62523;53.336;83.690;2023-09-18T07:11:27;12.73;;;6.88;;
74168;SDS011;62523;53.336;83.690;2023-09-18T07:16:28;5.88;;;5.28;;
74168;SDS011;62523;53.336;83.690;2023-09-18T07:21:30;9.13;;;7.47;;
74168;SDS011;62523;53.336;83.690;2023-09-18T07:26:31;17.67;;;6.65;;
74168;SDS011;62523;53.336;83.690;2023-09-18T07:31:33;8.57;;;6.15;;
74168;SDS011;62523;53.336;83.690;2023-09-18T07:36:36;11.77;;;7.63;;
74168;SDS011;62523;53.336;83.690;2023-09-18T07:41:37;11.38;;;7.10;;
74168;SDS011;62523;53.336;83.690;2023-09-18T07:46:40;10.07;;;6.05;;
74168;SDS011;62523;53.336;83.690;2023-09-18T07:51:43;14.45;;;6.70;;
74168;SDS011;62523;53.336;83.690;2023-09-18T07:56:45;12.13;;;6.47;;
74168;SDS011;62523;53.336;83.690;2023-09-18T08:01:46;22.23;;;7.28;;
74168;SDS011;62523;53.336;83.690;2023-09-18T08:06:47;12.50;;;7.47;;
74168;SDS011;62523;53.336;83.690;2023-09-18T08:11:49;9.93;;;7.20;;
74168;SDS011;62523;53.336;83.690;2023-09-18T08:16:55;16.48;;;7.47;;
74168;SDS011;62523;53.336;83.690;2023-09-18T08:21:59;17.90;;;8.70;;
74168;SDS011;62523;53.336;83.690;2023-09-18T08:27:01;18.55;;;6.93;;
74168;SDS011;62523;53.336;83.690;2023-09-18T08:32:04;15.63;;;9.00;;
74168;SDS011;62523;53.336;83.690;2023-09-18T08:37:05;16.30;;;9.25;;
74168;SDS011;62523;53.336;83.690;2023-09-18T08:42:07;20.25;;;7.97;;
74168;SDS011;62523;53.336;83.690;2023-09-18T08:47:11;24.83;;;10.15;;
74168;SDS011;62523;53.336;83.690;2023-09-18T08:52:16;13.10;;;9.00;;
74168;SDS011;62523;53.336;83.690;2023-09-18T08:57:18;22.33;;;9.15;;
74168;SDS011;62523;53.336;83.690;2023-09-18T09:02:20;18.45;;;7.15;;
74168;SDS011;62523;53.336;83.690;2023-09-18T09:07:21;11.25;;;6.75;;
74168;SDS011;62523;53.336;83.690;2023-09-18T09:17:51;16.92;;;10.30;;
74168;SDS011;62523;53.336;83.690;2023-09-18T09:22:55;20.73;;;7.78;;
74168;SDS011;62523;53.336;83.690;2023-09-18T09:28:02;18.25;;;9.35;;
74168;SDS011;62523;53.336;83.690;2023-09-18T09:33:05;29.30;;;8.40;;
74168;SDS011;62523;53.336;83.690;2023-09-18T09:38:10;24.10;;;9.00;;
74168;SDS011;62523;53.336;83.690;2023-09-18T09:43:12;25.90;;;7.95;;
74168;SDS011;62523;53.336;83.690;2023-09-18T09:48:15;25.75;;;8.75;;
74168;SDS011;62523;53.336;83.690;2023-09-18T09:53:17;21.75;;;10.05;;
74168;SDS011;62523;53.336;83.690;2023-09-18T09:58:19;21.92;;;10.02;;
74168;SDS011;62523;53.336;83.690;2023-09-18T10:03:32;25.77;;;9.53;;
74168;SDS011;62523;53.336;83.690;2023-09-18T10:08:34;24.63;;;9.38;;
74168;SDS011;62523;53.336;83.690;2023-09-18T10:13:41;25.25;;;11.02;;
74168;SDS011;62523;53.336;83.690;2023-09-18T10:24:25;21.33;;;10.32;;
74168;SDS011;62523;53.336;83.690;2023-09-18T10:29:35;27.20;;;9.10;;
74168;SDS011;62523;53.336;83.690;2023-09-18T10:34:37;21.65;;;9.98;;
74168;SDS011;62523;53.336;83.690;2023-09-18T10:39:39;29.40;;;11.25;;
74168;SDS011;62523;53.336;83.690;2023-09-18T10:44:42;16.33;;;8.43;;
74168;SDS011;62523;53.336;83.690;2023-09-18T10:49:45;22.83;;;10.13;;
74168;SDS011;62523;53.336;83.690;2023-09-18T10:54:46;30.10;;;13.00;;
74168;SDS011;62523;53.336;83.690;2023-09-18T10:59:48;20.23;;;9.35;;
74168;SDS011;62523;53.336;83.690;2023-09-18T11:04:50;18.45;;;8.25;;
74168;SDS011;62523;53.336;83.690;2023-09-18T11:09:55;21.02;;;8.27;;
74168;SDS011;62523;53.336;83.690;2023-09-18T11:14:57;20.93;;;8.70;;
74168;SDS011;62523;53.336;83.690;2023-09-18T11:30:54;19.60;;;10.06;;
74168;SDS011;62523;53.336;83.690;2023-09-18T11:41:24;18.55;;;11.10;;
74168;SDS011;62523;53.336;83.690;2023-09-18T11:46:30;26.00;;;12.00;;
74168;SDS011;62523;53.336;83.690;2023-09-18T11:51:32;24.00;;;10.75;;
74168;SDS011;62523;53.336;83.690;2023-09-18T11:56:35;24.60;;;10.40;;
74168;SDS011;62523;53.336;83.690;2023-09-18T12:01:37;15.02;;;8.80;;
74168;SDS011;62523;53.336;83.690;2023-09-18T12:06:41;14.02;;;9.60;;
74168;SDS011;62523;53.336;83.690;2023-09-18T12:11:43;17.25;;;8.00;;
74168;SDS011;62523;53.336;83.690;2023-09-18T12:16:45;15.23;;;7.82;;
74168;SDS011;62523;53.336;83.690;2023-09-18T12:21:47;12.65;;;8.68;;
74168;SDS011;62523;53.336;83.690;2023-09-18T12:26:49;14.82;;;8.52;;
74168;SDS011;62523;53.336;83.690;2023-09-18T12:31:51;24.20;;;9.60;;
74168;SDS011;62523;53.336;83.690;2023-09-18T12:36:53;16.35;;;9.13;;
74168;SDS011;62523;53.336;83.690;2023-09-18T12:41:55;17.00;;;8.90;;
74168;SDS011;62523;53.336;83.690;2023-09-18T12:46:57;19.58;;;9.07;;
74168;SDS011;62523;53.336;83.690;2023-09-18T12:52:02;20.73;;;9.63;;
74168;SDS011;62523;53.336;83.690;2023-09-18T12:57:07;10.50;;;7.80;;
74168;SDS011;62523;53.336;83.690;2023-09-18T13:02:12;12.15;;;9.10;;
74168;SDS011;62523;53.336;83.690;2023-09-18T13:07:14;14.48;;;8.55;;
74168;SDS011;62523;53.336;83.690;2023-09-18T13:12:18;22.98;;;9.15;;
74168;SDS011;62523;53.336;83.690;2023-09-18T13:17:19;14.30;;;9.47;;
74168;SDS011;62523;53.336;83.690;2023-09-18T13:22:24;16.67;;;11.85;;
74168;SDS011;62523;53.336;83.690;2023-09-18T13:27:26;22.30;;;13.75;;
74168;SDS011;62523;53.336;83.690;2023-09-18T13:32:27;30.85;;;11.65;;
74168;SDS011;62523;53.336;83.690;2023-09-18T13:37:29;13.23;;;9.77;;
74168;SDS011;62523;53.336;83.690;2023-09-18T13:42:30;22.53;;;11.87;;
74168;SDS011;62523;53.336;83.690;2023-09-18T13:47:32;16.73;;;10.30;;
74168;SDS011;62523;53.336;83.690;2023-09-18T13:52:35;16.23;;;11.57;;
74168;SDS011;62523;53.336;83.690;2023-09-18T13:57:37;18.43;;;12.17;;
74168;SDS011;62523;53.336;83.690;2023-09-18T14:02:41;26.42;;;11.80;;
74168;SDS011;62523;53.336;83.690;2023-09-18T14:07:42;24.55;;;12.35;;
74168;SDS011;62523;53.336;83.690;2023-09-18T14:12:45;31.48;;;11.48;;
74168;SDS011;62523;53.336;83.690;2023-09-18T14:17:46;16.95;;;11.57;;
74168;SDS011;62523;53.336;83.690;2023-09-18T14:22:49;16.38;;;12.20;;
74168;SDS011;62523;53.336;83.690;2023-09-18T14:27:51;29.92;;;12.32;;
74168;SDS011;62523;53.336;83.690;2023-09-18T14:32:53;31.27;;;11.23;;
74168;SDS011;62523;53.336;83.690;2023-09-18T14:37:54;20.67;;;11.35;;
74168;SDS011;62523;53.336;83.690;2023-09-18T14:42:56;35.45;;;11.07;;
74168;SDS011;62523;53.336;83.690;2023-09-18T14:47:58;22.88;;;12.63;;
74168;SDS011;62523;53.336;83.690;2023-09-18T14:52:59;25.08;;;13.63;;
74168;SDS011;62523;53.336;83.690;2023-09-18T14:58:01;51.65;;;13.98;;
74168;SDS011;62523;53.336;83.690;2023-09-18T15:03:02;19.10;;;13.63;;
74168;SDS011;62523;53.336;83.690;2023-09-18T15:08:05;20.05;;;12.77;;
74168;SDS011;62523;53.336;83.690;2023-09-18T15:13:07;34.63;;;12.48;;
74168;SDS011;62523;53.336;83.690;2023-09-18T15:18:09;21.75;;;11.52;;
74168;SDS011;62523;53.336;83.690;2023-09-18T15:23:10;28.63;;;14.95;;
74168;SDS011;62523;53.336;83.690;2023-09-18T15:28:12;19.27;;;13.85;;
74168;SDS011;62523;53.336;83.690;2023-09-18T15:33:14;21.63;;;12.00;;
74168;SDS011;62523;53.336;83.690;2023-09-18T15:38:18;22.92;;;10.93;;
74168;SDS011;62523;53.336;83.690;2023-09-18T15:43:20;18.50;;;9.30;;
74168;SDS011;62523;53.336;83.690;2023-09-18T15:48:21;21.63;;;9.65;;
74168;SDS011;62523;53.336;83.690;2023-09-18T15:53:23;23.17;;;10.20;;
74168;SDS011;62523;53.336;83.690;2023-09-18T15:58:24;17.70;;;10.10;;
74168;SDS011;62523;53.336;83.690;2023-09-18T16:03:25;21.67;;;12.20;;
74168;SDS011;62523;53.336;83.690;2023-09-18T16:08:28;26.55;;;13.43;;
74168;SDS011;62523;53.336;83.690;2023-09-18T16:13:29;28.75;;;13.02;;
74168;SDS011;62523;53.336;83.690;2023-09-18T16:18:31;24.67;;;10.73;;
74168;SDS011;62523;53.336;83.690;2023-09-18T16:23:35;38.38;;;12.18;;
74168;SDS011;62523;53.336;83.690;2023-09-18T16:28:49;29.73;;;13.60;;
74168;SDS011;62523;53.336;83.690;2023-09-18T16:33:51;25.50;;;12.50;;
74168;SDS011;62523;53.336;83.690;2023-09-18T16:38:52;26.50;;;11.50;;
74168;SDS011;62523;53.336;83.690;2023-09-18T16:43:54;21.40;;;10.13;;
74168;SDS011;62523;53.336;83.690;2023-09-18T16:48:55;18.33;;;10.20;;
74168;SDS011;62523;53.336;83.690;2023-09-18T16:53:58;43.55;;;8.55;;
74168;SDS011;62523;53.336;83.690;2023-09-18T16:59:00;25.58;;;9.10;;
74168;SDS011;62523;53.336;83.690;2023-09-18T17:04:02;21.40;;;8.65;;
74168;SDS011;62523;53.336;83.690;2023-09-18T17:09:04;21.35;;;8.77;;
74168;SDS011;62523;53.336;83.690;2023-09-18T17:14:06;17.43;;;8.30;;
74168;SDS011;62523;53.336;83.690;2023-09-18T17:19:07;17.95;;;7.82;;
74168;SDS011;62523;53.336;83.690;2023-09-18T17:24:13;20.67;;;8.80;;
74168;SDS011;62523;53.336;83.690;2023-09-18T17:29:14;24.30;;;9.77;;
74168;SDS011;62523;53.336;83.690;2023-09-18T17:34:16;24.33;;;9.43;;
74168;SDS011;62523;53.336;83.690;2023-09-18T17:39:17;15.23;;;8.65;;
74168;SDS011;62523;53.336;83.690;2023-09-18T17:44:19;16.42;;;8.65;;
74168;SDS011;62523;53.336;83.690;2023-09-18T17:49:20;22.10;;;7.57;;
74168;SDS011;62523;53.336;83.690;2023-09-18T17:54:23;14.90;;;6.80;;
74168;SDS011;62523;53.336;83.690;2023-09-18T17:59:25;27.65;;;9.05;;
74168;SDS011;62523;53.336;83.690;2023-09-18T18:04:27;12.00;;;7.30;;
74168;SDS011;62523;53.336;83.690;2023-09-18T18:09:29;17.55;;;8.15;;
74168;SDS011;62523;53.336;83.690;2023-09-18T18:14:30;9.05;;;6.53;;
74168;SDS011;62523;53.336;83.690;2023-09-18T18:19:32;8.90;;;6.63;;
74168;SDS011;62523;53.336;83.690;2023-09-18T18:24:33;14.18;;;7.93;;
74168;SDS011;62523;53.336;83.690;2023-09-18T18:29:35;20.42;;;8.60;;
74168;SDS011;62523;53.336;83.690;2023-09-18T18:34:38;12.55;;;6.82;;
74168;SDS011;62523;53.336;83.690;2023-09-18T18:39:39;9.30;;;7.25;;
74168;SDS011;62523;53.336;83.690;2023-09-18T18:44:40;12.35;;;7.85;;
74168;SDS011;62523;53.336;83.690;2023-09-18T18:49:42;10.02;;;7.13;;
74168;SDS011;62523;53.336;83.690;2023-09-18T18:54:45;19.15;;;7.53;;
74168;SDS011;62523;53.336;83.690;2023-09-18T18:59:49;8.27;;;6.70;;
74168;SDS011;62523;53.336;83.690;2023-09-18T19:04:50;9.75;;;7.10;;
74168;SDS011;62523;53.336;83.690;2023-09-18T19:09:52;14.75;;;6.95;;
74168;SDS011;62523;53.336;83.690;2023-09-18T19:14:53;13.55;;;8.57;;
74168;SDS011;62523;53.336;83.690;2023-09-18T19:19:55;16.13;;;7.28;;
74168;SDS011;62523;53.336;83.690;2023-09-18T19:24:57;18.87;;;7.93;;
74168;SDS011;62523;53.336;83.690;2023-09-18T19:29:58;12.55;;;8.05;;
74168;SDS011;62523;53.336;83.690;2023-09-18T19:35:00;12.07;;;6.85;;
74168;SDS011;62523;53.336;83.690;2023-09-18T19:40:02;11.52;;;8.15;;
74168;SDS011;62523;53.336;83.690;2023-09-18T19:45:05;17.77;;;7.90;;
74168;SDS011;62523;53.336;83.690;2023-09-18T19:50:07;10.07;;;8.15;;
74168;SDS011;62523;53.336;83.690;2023-09-18T19:55:08;20.17;;;8.77;;
74168;SDS011;62523;53.336;83.690;2023-09-18T20:00:10;18.90;;;7.88;;
74168;SDS011;62523;53.336;83.690;2023-09-18T20:05:15;29.10;;;9.02;;
74168;SDS011;62523;53.336;83.690;2023-09-18T20:10:17;11.88;;;7.65;;
74168;SDS011;62523;53.336;83.690;2023-09-18T20:15:20;11.07;;;8.20;;
74168;SDS011;62523;53.336;83.690;2023-09-18T20:20:21;16.23;;;7.90;;
74168;SDS011;62523;53.336;83.690;2023-09-18T20:25:23;17.45;;;8.05;;
74168;SDS011;62523;53.336;83.690;2023-09-18T20:30:24;21.75;;;9.55;;
74168;SDS011;62523;53.336;83.690;2023-09-18T20:35:26;16.33;;;10.10;;
74168;SDS011;62523;53.336;83.690;2023-09-18T20:40:28;12.77;;;9.18;;
74168;SDS011;62523;53.336;83.690;2023-09-18T20:45:29;16.85;;;8.80;;
74168;SDS011;62523;53.336;83.690;2023-09-18T20:50:30;10.68;;;9.10;;
74168;SDS011;62523;53.336;83.690;2023-09-18T20:55:33;9.75;;;8.00;;
74168;SDS011;62523;53.336;83.690;2023-09-18T21:00:43;19.19;;;9.56;;
74168;SDS011;62523;53.336;83.690;2023-09-18T21:05:52;11.96;;;8.46;;
74168;SDS011;62523;53.336;83.690;2023-09-18T21:10:55;15.00;;;9.30;;
74168;SDS011;62523;53.336;83.690;2023-09-18T21:15:56;10.10;;;7.90;;
74168;SDS011;62523;53.336;83.690;2023-09-18T21:21:03;18.15;;;9.23;;
74168;SDS011;62523;53.336;83.690;2023-09-18T21:26:04;18.63;;;9.30;;
74168;SDS011;62523;53.336;83.690;2023-09-18T21:31:12;14.05;;;7.35;;
74168;SDS011;62523;53.336;83.690;2023-09-18T21:36:20;12.88;;;8.95;;
74168;SDS011;62523;53.336;83.690;2023-09-18T21:41:24;11.53;;;8.67;;
74168;SDS011;62523;53.336;83.690;2023-09-18T21:46:26;18.55;;;8.82;;
74168;SDS011;62523;53.336;83.690;2023-09-18T21:51:27;10.40;;;7.97;;
74168;SDS011;62523;53.336;83.690;2023-09-18T21:56:31;16.33;;;10.35;;
74168;SDS011;62523;53.336;83.690;2023-09-18T22:01:32;11.70;;;7.50;;
74168;SDS011;62523;53.336;83.690;2023-09-18T22:06:35;13.68;;;7.15;;
74168;SDS011;62523;53.336;83.690;2023-09-18T22:11:37;17.48;;;9.43;;
74168;SDS011;62523;53.336;83.690;2023-09-18T22:16:38;14.93;;;8.13;;
74168;SDS011;62523;53.336;83.690;2023-09-18T22:21:39;20.77;;;9.32;;
74168;SDS011;62523;53.336;83.690;2023-09-18T22:26:43;13.48;;;9.15;;
74168;SDS011;62523;53.336;83.690;2023-09-18T22:31:44;15.73;;;8.77;;
74168;SDS011;62523;53.336;83.690;2023-09-18T22:36:46;20.77;;;10.53;;
74168;SDS011;62523;53.336;83.690;2023-09-18T22:57:42;17.85;;;10.85;;
74168;SDS011;62523;53.336;83.690;2023-09-18T23:02:47;21.75;;;10.98;;
74168;SDS011;62523;53.336;83.690;2023-09-18T23:07:49;17.73;;;10.50;;
74168;SDS011;62523;53.336;83.690;2023-09-18T23:12:53;16.08;;;9.38;;
74168;SDS011;62523;53.336;83.690;2023-09-18T23:17:59;13.65;;;8.98;;
74168;SDS011;62523;53.336;83.690;2023-09-18T23:23:01;16.40;;;8.55;;
74168;SDS011;62523;53.336;83.690;2023-09-18T23:28:03;14.45;;;8.93;;
74168;SDS011;62523;53.336;83.690;2023-09-18T23:33:06;24.60;;;9.10;;
74168;SDS011;62523;53.336;83.690;2023-09-18T23:38:11;23.90;;;8.75;;
74168;SDS011;62523;53.336;83.690;2023-09-18T23:43:12;19.92;;;9.30;;
74168;SDS011;62523;53.336;83.690;2023-09-18T23:48:17;15.00;;;9.43;;
74168;SDS011;62523;53.336;83.690;2023-09-18T23:53:19;21.30;;;11.30;;
74168;SDS011;62523;53.336;83.690;2023-09-18T23:58:25;25.25;;;11.07;;
